createdAt,value
2018-08-25T00:01:10.263Z,2.17
2018-08-25T00:03:38.388Z,2.27
2018-08-25T00:06:06.529Z,2.27
2018-08-25T00:08:34.649Z,1.97
2018-08-25T00:11:02.793Z,2.33
2018-08-25T00:13:32.791Z,2.00
2018-08-25T00:16:00.913Z,2.17
2018-08-25T00:18:29.061Z,2.10
2018-08-25T00:20:57.344Z,2.10
2018-08-25T00:23:25.703Z,2.00
2018-08-25T00:25:56.225Z,2.20
2018-08-25T00:28:24.412Z,2.60
2018-08-25T00:31:10.072Z,2.50
2018-08-25T00:33:38.354Z,2.30
2018-08-25T00:36:06.765Z,2.20
2018-08-25T00:38:38.597Z,2.10
2018-08-25T00:41:08.711Z,2.17
2018-08-25T00:43:36.877Z,1.93
2018-08-25T00:46:05.033Z,2.30
2018-08-25T00:48:33.169Z,2.40
2018-08-25T00:51:01.437Z,3.03
2018-08-25T00:53:32.036Z,2.37
2018-08-25T00:56:00.358Z,2.50
2018-08-25T00:58:29.849Z,2.17
2018-08-25T01:00:58.284Z,2.20
2018-08-25T01:03:26.477Z,2.63
2018-08-25T01:05:55.395Z,2.20
2018-08-25T01:08:23.815Z,2.70
2018-08-25T01:10:53.424Z,2.30
2018-08-25T01:13:21.552Z,2.27
2018-08-25T01:15:49.721Z,2.57
2018-08-25T01:18:17.840Z,2.40
2018-08-25T01:20:51.162Z,2.20
2018-08-25T01:23:19.410Z,2.07
2018-08-25T01:25:47.541Z,2.70
2018-08-25T01:28:15.716Z,1.90
2018-08-25T01:30:44.598Z,2.03
2018-08-25T01:33:12.857Z,2.03
2018-08-25T01:35:40.985Z,2.37
2018-08-25T01:38:10.356Z,2.00
2018-08-25T01:40:38.525Z,2.20
2018-08-25T01:43:06.740Z,2.03
2018-08-25T01:45:34.943Z,2.10
2018-08-25T01:48:03.381Z,1.90
2018-08-25T01:50:31.498Z,2.47
2018-08-25T01:52:59.642Z,2.13
2018-08-25T01:55:27.772Z,2.20
2018-08-25T01:57:55.916Z,2.67
2018-08-25T02:00:24.019Z,2.43
2018-08-25T02:02:52.217Z,2.57
2018-08-25T02:05:22.345Z,1.90
2018-08-25T02:07:52.088Z,2.20
2018-08-25T02:10:20.238Z,2.33
2018-08-25T02:12:48.373Z,2.00
2018-08-25T02:15:16.539Z,2.47
2018-08-25T02:17:44.690Z,2.10
2018-08-25T02:20:13.851Z,1.90
2018-08-25T02:22:41.986Z,2.10
2018-08-25T02:25:10.349Z,2.50
2018-08-25T02:27:38.499Z,2.60
2018-08-25T02:30:06.674Z,2.67
2018-08-25T02:35:03.866Z,2.57
2018-08-25T02:37:32.706Z,2.10
2018-08-25T02:40:00.867Z,2.67
2018-08-25T02:42:31.127Z,2.20
2018-08-25T02:44:59.268Z,2.00
2018-08-25T02:47:27.417Z,2.43
2018-08-25T02:49:55.545Z,2.30
2018-08-25T02:52:23.700Z,2.40
2018-08-25T02:54:51.845Z,1.80
2018-08-25T02:57:20.036Z,2.17
2018-08-25T02:59:48.924Z,2.20
2018-08-25T03:02:17.053Z,2.30
2018-08-25T03:04:45.232Z,2.53
2018-08-25T03:07:13.377Z,2.23
2018-08-25T03:09:43.853Z,1.87
2018-08-25T03:12:12.019Z,1.90
2018-08-25T03:14:40.172Z,1.80
2018-08-25T03:17:08.339Z,2.30
2018-08-25T03:19:36.500Z,1.70
2018-08-25T03:22:04.739Z,2.40
2018-08-25T03:24:32.905Z,2.00
2018-08-25T03:27:01.440Z,2.43
2018-08-25T03:29:31.675Z,2.40
2018-08-25T03:31:59.820Z,3.27
2018-08-25T03:34:29.303Z,2.07
2018-08-25T03:36:57.465Z,2.20
2018-08-25T03:39:25.601Z,2.10
2018-08-25T03:41:54.956Z,2.33
2018-08-25T03:44:23.078Z,2.20
2018-08-25T03:46:51.184Z,2.10
2018-08-25T03:49:19.590Z,2.50
2018-08-25T03:51:47.743Z,2.13
2018-08-25T03:54:17.267Z,2.43
2018-08-25T03:56:45.417Z,2.10
2018-08-25T03:59:13.586Z,2.20
2018-08-25T04:01:41.794Z,2.62
2018-08-25T04:04:09.904Z,2.70
2018-08-25T04:06:41.897Z,2.10
2018-08-25T04:09:12.220Z,2.92
2018-08-25T04:11:40.393Z,2.20
2018-08-25T04:14:09.704Z,1.87
2018-08-25T04:16:38.727Z,2.87
2018-08-25T04:19:07.232Z,2.60
2018-08-25T04:21:35.379Z,2.77
2018-08-25T04:24:03.477Z,2.20
2018-08-25T04:26:32.601Z,2.17
2018-08-25T04:29:01.559Z,2.80
2018-08-25T04:31:29.755Z,2.03
2018-08-25T04:33:57.917Z,2.70
2018-08-25T04:36:26.023Z,2.50
2018-08-25T04:38:54.260Z,2.10
2018-08-25T04:41:23.326Z,2.23
2018-08-25T04:43:51.666Z,2.80
2018-08-25T04:46:20.388Z,2.30
2018-08-25T04:48:51.936Z,2.33
2018-08-25T04:51:20.144Z,2.20
2018-08-25T04:53:48.231Z,2.53
2018-08-25T04:56:18.762Z,2.47
2018-08-25T04:58:46.888Z,2.43
2018-08-25T05:01:15.056Z,2.47
2018-08-25T05:03:43.228Z,2.30
2018-08-25T05:06:12.277Z,2.70
2018-08-25T05:08:40.480Z,2.60
2018-08-25T05:11:10.099Z,2.87
2018-08-25T05:13:40.230Z,2.30
2018-08-25T05:16:09.687Z,2.67
2018-08-25T05:18:37.831Z,2.60
2018-08-25T05:21:08.558Z,2.45
2018-08-25T05:23:37.268Z,2.27
2018-08-25T05:26:05.723Z,1.83
2018-08-25T05:28:33.902Z,1.93
2018-08-25T05:31:02.718Z,2.47
2018-08-25T05:33:31.177Z,1.57
2018-08-25T05:36:00.084Z,2.30
2018-08-25T05:38:31.007Z,2.40
2018-08-25T05:40:59.200Z,2.10
2018-08-25T05:43:27.348Z,2.10
2018-08-25T05:46:00.136Z,2.70
2018-08-25T05:48:31.107Z,2.30
2018-08-25T05:51:08.130Z,2.30
2018-08-25T05:53:36.511Z,2.20
2018-08-25T05:56:04.674Z,2.57
2018-08-25T05:58:33.035Z,2.67
2018-08-25T06:01:01.996Z,2.30
2018-08-25T06:03:30.454Z,2.50
2018-08-25T06:05:58.876Z,2.43
2018-08-25T06:08:27.835Z,2.70
2018-08-25T06:11:06.309Z,1.80
2018-08-25T06:13:34.524Z,1.83
2018-08-25T06:16:02.641Z,2.13
2018-08-25T06:18:30.803Z,2.60
2018-08-25T06:21:02.286Z,2.37
2018-08-25T06:23:30.664Z,2.37
2018-08-25T06:25:59.525Z,2.70
2018-08-25T06:28:28.386Z,3.17
2018-08-25T06:30:56.577Z,2.93
2018-08-25T06:33:24.791Z,2.50
2018-08-25T06:35:57.560Z,3.00
2018-08-25T06:38:27.603Z,2.97
2018-08-25T06:40:56.597Z,3.10
2018-08-25T06:43:24.799Z,2.73
2018-08-25T06:46:09.003Z,2.93
2018-08-25T06:48:38.693Z,2.63
2018-08-25T06:51:06.853Z,2.03
2018-08-25T06:53:35.417Z,2.27
2018-08-25T06:56:03.589Z,2.43
2018-08-25T06:58:34.161Z,2.17
2018-08-25T07:01:02.550Z,2.13
2018-08-25T07:03:30.653Z,2.40
2018-08-25T07:06:01.380Z,1.73
2018-08-25T07:08:29.526Z,2.50
2018-08-25T07:10:57.667Z,1.70
2018-08-25T07:13:26.074Z,2.00
2018-08-25T07:15:54.506Z,1.93
2018-08-25T07:18:22.644Z,1.87
2018-08-25T07:20:51.059Z,2.20
2018-08-25T07:23:19.208Z,1.60
2018-08-25T07:25:49.655Z,1.62
2018-08-25T07:28:17.721Z,1.92
2018-08-25T07:30:51.151Z,1.80
2018-08-25T07:33:19.302Z,1.90
2018-08-25T07:35:48.176Z,2.08
2018-08-25T07:38:33.482Z,1.60
2018-08-25T07:41:01.657Z,1.57
2018-08-25T07:43:30.074Z,1.90
2018-08-25T07:45:58.198Z,1.60
2018-08-25T07:48:26.370Z,2.03
2018-08-25T07:50:54.466Z,1.80
2018-08-25T07:53:22.694Z,9.30
2018-08-25T07:55:52.304Z,1.70
2018-08-25T07:58:20.509Z,1.60
2018-08-25T08:00:48.582Z,2.87
2018-08-25T08:03:16.949Z,1.50
2018-08-25T08:05:46.088Z,2.00
2018-08-25T08:08:15.541Z,1.50
2018-08-25T08:10:44.741Z,1.70
2018-08-25T08:13:12.940Z,1.77
2018-08-25T08:15:41.157Z,1.83
2018-08-25T08:18:10.610Z,1.80
2018-08-25T08:20:40.462Z,2.00
2018-08-25T08:23:10.554Z,2.80
2018-08-25T08:25:39.804Z,2.63
2018-08-25T08:28:10.326Z,2.40
2018-08-25T08:30:41.298Z,2.02
2018-08-25T08:33:09.565Z,2.42
2018-08-25T08:35:37.995Z,2.22
2018-08-25T08:38:06.186Z,1.90
2018-08-25T08:40:34.700Z,2.35
2018-08-25T08:43:02.980Z,2.25
2018-08-25T08:45:31.218Z,2.73
2018-08-25T08:47:59.294Z,3.00
2018-08-25T08:50:27.495Z,3.17
2018-08-25T08:52:55.700Z,2.70
2018-08-25T08:55:24.100Z,2.83
2018-08-25T08:57:52.234Z,2.77
2018-08-25T09:00:20.517Z,2.70
2018-08-25T09:02:48.960Z,2.85
2018-08-25T09:05:17.124Z,3.10
2018-08-25T09:07:45.328Z,2.85
2018-08-25T09:10:16.581Z,3.30
2018-08-25T09:12:44.750Z,3.17
2018-08-25T09:15:13.180Z,3.65
2018-08-25T09:17:41.453Z,3.92
2018-08-25T09:20:09.630Z,3.47
2018-08-25T09:22:37.772Z,3.87
2018-08-25T09:25:05.934Z,2.90
2018-08-25T09:27:36.227Z,3.37
2018-08-25T09:30:05.785Z,4.80
2018-08-25T09:32:34.146Z,4.40
2018-08-25T09:35:02.296Z,3.17
2018-08-25T09:37:30.420Z,3.42
2018-08-25T09:39:58.567Z,3.20
2018-08-25T09:42:26.732Z,3.52
2018-08-25T09:44:55.212Z,3.37
2018-08-25T09:47:23.606Z,3.70
2018-08-25T09:50:01.564Z,4.40
2018-08-25T09:52:29.699Z,4.20
2018-08-25T09:55:00.090Z,4.25
2018-08-25T09:57:28.256Z,5.55
2018-08-25T09:59:57.623Z,4.70
2018-08-25T10:02:25.774Z,4.78
2018-08-25T10:04:53.968Z,4.92
2018-08-25T10:07:22.846Z,5.08
2018-08-25T10:09:50.991Z,5.17
2018-08-25T10:12:19.463Z,4.78
2018-08-25T10:14:47.619Z,4.95
2018-08-25T10:17:15.789Z,5.58
2018-08-25T10:19:44.190Z,6.90
2018-08-25T10:22:12.365Z,6.85
2018-08-25T10:24:40.539Z,6.58
2018-08-25T10:27:08.745Z,6.87
2018-08-25T10:29:36.929Z,6.70
2018-08-25T10:32:05.431Z,6.70
2018-08-25T10:34:34.803Z,7.97
2018-08-25T10:37:02.960Z,5.83
2018-08-25T10:39:33.376Z,6.45
2018-08-25T10:42:01.584Z,6.47
2018-08-25T10:44:29.698Z,7.78
2018-08-25T10:46:57.854Z,6.72
2018-08-25T10:49:26.069Z,7.83
2018-08-25T10:51:54.225Z,8.53
2018-08-25T10:54:22.395Z,5.50
2018-08-25T10:56:50.880Z,7.15
2018-08-25T10:59:19.067Z,5.83
2018-08-25T11:01:47.228Z,5.08
2018-08-25T11:04:16.210Z,6.35
2018-08-25T11:06:44.366Z,5.20
2018-08-25T11:09:13.949Z,5.70
2018-08-25T11:11:43.679Z,4.85
2018-08-25T11:14:12.067Z,5.60
2018-08-25T11:16:40.233Z,5.60
2018-08-25T11:19:08.390Z,5.62
2018-08-25T11:21:36.669Z,5.30
2018-08-25T11:24:04.826Z,5.67
2018-08-25T11:26:32.963Z,5.00
2018-08-25T11:29:01.391Z,5.12
2018-08-25T11:31:29.611Z,4.83
2018-08-25T11:33:58.295Z,5.10
2018-08-25T11:36:26.445Z,5.07
2018-08-25T11:38:54.884Z,4.77
2018-08-25T11:41:23.060Z,4.40
2018-08-25T11:43:51.351Z,4.93
2018-08-25T11:46:20.709Z,4.47
2018-08-25T11:48:48.853Z,4.30
2018-08-25T11:51:17.083Z,4.43
2018-08-25T11:53:45.587Z,4.97
2018-08-25T11:56:13.746Z,4.47
2018-08-25T11:58:42.984Z,4.47
2018-08-25T12:01:11.156Z,4.73
2018-08-25T12:03:39.405Z,4.83
2018-08-25T12:06:07.585Z,4.93
2018-08-25T12:08:35.768Z,4.70
2018-08-25T12:11:03.912Z,5.07
2018-08-25T12:13:32.085Z,6.33
2018-08-25T12:16:00.510Z,6.57
2018-08-25T12:18:28.677Z,7.20
2018-08-25T12:20:57.109Z,7.45
2018-08-25T12:23:25.555Z,5.43
2018-08-25T12:25:56.403Z,6.17
2018-08-25T12:28:25.338Z,5.90
2018-08-25T12:30:53.529Z,6.17
2018-08-25T12:33:21.715Z,6.60
2018-08-25T12:35:49.848Z,6.60
2018-08-25T12:38:18.193Z,6.10
2018-08-25T12:40:46.387Z,6.43
2018-08-25T12:43:16.867Z,5.60
2018-08-25T12:45:45.097Z,5.50
2018-08-25T12:48:13.273Z,5.83
2018-08-25T12:50:41.519Z,6.03
2018-08-25T12:53:09.660Z,5.20
2018-08-25T12:55:37.806Z,4.77
2018-08-25T12:58:06.070Z,4.77
2018-08-25T13:00:34.174Z,5.47
2018-08-25T13:03:02.348Z,5.03
2018-08-25T13:05:30.494Z,5.50
2018-08-25T13:07:59.053Z,5.70
2018-08-25T13:10:27.769Z,5.23
2018-08-25T13:12:55.926Z,6.17
2018-08-25T13:15:24.137Z,6.13
2018-08-25T13:17:52.511Z,6.40
2018-08-25T13:20:20.980Z,6.57
2018-08-25T13:22:49.151Z,7.20
2018-08-25T13:25:18.775Z,6.57
2018-08-25T13:27:46.998Z,4.30
2018-08-25T13:30:15.188Z,5.30
2018-08-25T13:32:45.662Z,5.87
2018-08-25T13:35:16.337Z,5.80
2018-08-25T13:37:44.845Z,6.10
2018-08-25T13:40:12.966Z,5.47
2018-08-25T13:42:41.120Z,5.70
2018-08-25T13:45:09.350Z,5.20
2018-08-25T13:47:37.802Z,5.47
2018-08-25T13:50:06.108Z,5.70
2018-08-25T13:52:34.637Z,5.83
2018-08-25T13:55:02.727Z,6.20
2018-08-25T13:57:31.748Z,5.73
2018-08-25T13:59:59.961Z,6.50
2018-08-25T14:02:28.159Z,5.57
2018-08-25T14:04:56.465Z,4.77
2018-08-25T14:07:24.582Z,3.27
2018-08-25T14:09:52.932Z,3.50
2018-08-25T14:12:21.237Z,3.00
2018-08-25T14:14:52.626Z,2.33
2018-08-25T14:17:20.876Z,2.30
2018-08-25T14:19:49.063Z,2.30
2018-08-25T14:22:17.259Z,1.97
2018-08-25T14:24:45.728Z,2.20
2018-08-25T14:27:14.610Z,1.90
2018-08-25T14:29:42.763Z,1.60
2018-08-25T14:32:10.927Z,2.20
2018-08-25T14:34:39.100Z,1.80
2018-08-25T14:37:07.265Z,1.40
2018-08-25T14:39:35.487Z,2.00
2018-08-25T14:42:03.932Z,1.70
2018-08-25T14:44:32.082Z,1.63
2018-08-25T14:47:07.419Z,2.40
2018-08-25T14:49:35.694Z,3.30
2018-08-25T14:52:03.868Z,2.97
2018-08-25T14:54:32.002Z,3.13
2018-08-25T14:57:00.150Z,2.30
2018-08-25T14:59:28.331Z,2.20
2018-08-25T15:01:56.495Z,2.63
2018-08-25T15:04:24.646Z,2.77
2018-08-25T15:06:53.781Z,2.17
2018-08-25T15:09:25.202Z,2.33
2018-08-25T15:11:53.398Z,2.27
2018-08-25T15:14:21.551Z,2.67
2018-08-25T15:16:49.753Z,3.08
2018-08-25T15:19:17.904Z,2.60
2018-08-25T15:21:46.366Z,2.80
2018-08-25T15:24:14.518Z,2.67
2018-08-25T15:26:45.143Z,3.30
2018-08-25T15:29:13.305Z,5.07
2018-08-25T15:31:41.480Z,3.33
2018-08-25T15:34:10.070Z,3.07
2018-08-25T15:36:38.321Z,2.17
2018-08-25T15:39:10.085Z,2.20
2018-08-25T15:41:38.249Z,2.25
2018-08-25T15:44:06.512Z,2.53
2018-08-25T15:46:34.831Z,2.30
2018-08-25T15:49:02.974Z,2.30
2018-08-25T15:51:31.359Z,2.57
2018-08-25T15:53:59.576Z,2.20
2018-08-25T15:56:27.792Z,2.53
2018-08-25T15:58:56.127Z,3.70
2018-08-25T16:01:24.402Z,3.60
2018-08-25T16:03:53.548Z,2.87
2018-08-25T16:06:22.043Z,2.67
2018-08-25T16:08:50.246Z,2.45
2018-08-25T16:11:18.454Z,2.70
2018-08-25T16:13:46.714Z,2.47
2018-08-25T16:16:15.106Z,2.63
2018-08-25T16:18:43.411Z,2.40
2018-08-25T16:21:11.630Z,2.40
2018-08-25T16:23:39.793Z,2.47
2018-08-25T16:26:08.268Z,2.67
2018-08-25T16:28:36.488Z,2.47
2018-08-25T16:31:04.730Z,3.20
2018-08-25T16:33:32.914Z,3.93
2018-08-25T16:36:01.072Z,2.90
2018-08-25T16:38:29.224Z,4.23
2018-08-25T16:40:57.869Z,3.00
2018-08-25T16:43:26.078Z,3.30
2018-08-25T16:45:54.486Z,3.33
2018-08-25T16:48:22.627Z,3.67
2018-08-25T16:50:51.047Z,2.43
2018-08-25T16:53:19.183Z,0.93
2018-08-25T16:55:47.614Z,3.17
2018-08-25T16:58:15.738Z,1.87
2018-08-25T17:00:43.887Z,1.27
2018-08-25T17:03:12.193Z,0.70
2018-08-25T17:05:40.331Z,0.67
2018-08-25T17:08:08.490Z,0.53
2018-08-25T17:10:36.637Z,0.43
2018-08-25T17:13:04.818Z,0.80
2018-08-25T17:15:32.966Z,0.70
2018-08-25T17:18:01.112Z,0.50
2018-08-25T17:20:29.288Z,0.67
2018-08-25T17:22:57.530Z,0.50
2018-08-25T17:25:25.772Z,0.70
2018-08-25T17:27:55.610Z,0.60
2018-08-25T17:30:23.892Z,0.73
2018-08-25T17:32:52.036Z,0.77
2018-08-25T17:35:20.271Z,1.07
2018-08-25T17:37:48.830Z,0.90
2018-08-25T17:40:17.002Z,0.87
2018-08-25T17:42:45.635Z,1.30
2018-08-25T17:45:13.990Z,1.03
2018-08-25T17:47:42.155Z,1.00
2018-08-25T17:50:10.304Z,1.20
2018-08-25T17:52:39.439Z,1.30
2018-08-25T17:55:07.602Z,1.20
2018-08-25T17:57:36.167Z,1.40
2018-08-25T18:00:04.638Z,1.40
2018-08-25T18:02:32.787Z,1.37
2018-08-25T18:05:00.951Z,1.30
2018-08-25T18:07:29.392Z,1.50
2018-08-25T18:09:57.796Z,1.50
2018-08-25T18:12:25.985Z,1.37
2018-08-25T18:14:54.138Z,1.70
2018-08-25T18:17:22.323Z,1.53
2018-08-25T18:19:51.187Z,1.60
2018-08-25T18:22:19.432Z,1.77
2018-08-25T18:24:49.189Z,1.50
2018-08-25T18:27:17.668Z,1.77
2018-08-25T18:29:45.831Z,1.60
2018-08-25T18:32:14.213Z,2.13
2018-08-25T18:34:43.411Z,2.00
2018-08-25T18:37:11.611Z,2.10
2018-08-25T18:39:41.056Z,1.80
2018-08-25T18:42:09.213Z,1.80
2018-08-25T18:44:37.364Z,1.80
2018-08-25T18:47:06.981Z,2.30
2018-08-25T18:49:35.349Z,1.80
2018-08-25T18:52:05.087Z,2.00
2018-08-25T18:54:33.286Z,2.33
2018-08-25T18:57:01.400Z,2.13
2018-08-25T18:59:29.638Z,2.10
2018-08-25T19:01:59.230Z,1.60
2018-08-25T19:04:27.564Z,2.40
2018-08-25T19:06:55.799Z,2.20
2018-08-25T19:09:23.916Z,2.13
2018-08-25T19:11:52.069Z,2.00
2018-08-25T19:14:20.270Z,2.17
2018-08-25T19:16:48.432Z,1.90
2018-08-25T19:19:16.614Z,1.50
2018-08-25T19:21:44.767Z,1.83
2018-08-25T19:24:13.055Z,1.80
2018-08-25T19:26:41.163Z,1.80
2018-08-25T19:29:09.303Z,2.13
2018-08-25T19:31:37.487Z,1.87
2018-08-25T19:34:05.652Z,2.50
2018-08-25T19:36:34.867Z,2.27
2018-08-25T19:39:03.059Z,2.10
2018-08-25T19:41:31.230Z,2.00
2018-08-25T19:43:59.702Z,1.50
2018-08-25T19:46:27.867Z,1.90
2018-08-25T19:48:57.203Z,2.10
2018-08-25T19:51:25.627Z,1.80
2018-08-25T19:53:53.771Z,2.20
2018-08-25T19:56:21.940Z,2.33
2018-08-25T19:58:50.130Z,2.07
2018-08-25T20:01:18.319Z,2.07
2018-08-25T20:03:46.590Z,1.87
2018-08-25T20:06:14.900Z,2.40
2018-08-25T20:08:43.048Z,1.87
2018-08-25T20:11:12.286Z,2.03
2018-08-25T20:13:40.478Z,2.10
2018-08-25T20:16:08.622Z,1.60
2018-08-25T20:18:37.146Z,1.70
2018-08-25T20:21:05.535Z,1.73
2018-08-25T20:23:33.698Z,1.70
2018-08-25T20:26:01.821Z,1.87
2018-08-25T20:28:30.106Z,2.20
2018-08-25T20:30:58.474Z,1.60
2018-08-25T20:33:29.402Z,1.70
2018-08-25T20:36:01.175Z,1.70
2018-08-25T20:38:29.318Z,1.53
2018-08-25T20:41:00.531Z,1.83
2018-08-25T20:43:28.707Z,1.60
2018-08-25T20:45:57.113Z,1.43
2018-08-25T20:48:26.673Z,1.40
2018-08-25T20:50:55.541Z,1.50
2018-08-25T20:53:23.965Z,2.35
2018-08-25T20:55:52.096Z,2.27
2018-08-25T20:58:20.253Z,2.20
2018-08-25T21:00:48.413Z,1.97
2018-08-25T21:03:16.532Z,2.37
2018-08-25T21:05:44.705Z,1.57
2018-08-25T21:08:12.897Z,1.70
2018-08-25T21:10:42.094Z,2.50
2018-08-25T21:13:10.447Z,3.00
2018-08-25T21:15:38.911Z,2.80
2018-08-25T21:18:07.327Z,3.00
2018-08-25T21:20:35.638Z,2.30
2018-08-25T21:23:03.784Z,2.40
2018-08-25T21:25:31.959Z,2.77
2018-08-25T21:28:00.088Z,3.17
2018-08-25T21:30:28.296Z,3.43
2018-08-25T21:32:56.420Z,6.00
2018-08-25T21:35:24.542Z,3.50
2018-08-25T21:37:54.525Z,4.07
2018-08-25T21:40:23.800Z,5.90
2018-08-25T21:42:51.974Z,6.47
2018-08-25T21:45:20.137Z,5.30
2018-08-25T21:47:49.746Z,4.73
2018-08-25T21:50:17.878Z,5.07
2018-08-25T21:52:48.788Z,3.77
2018-08-25T21:55:17.681Z,3.80
2018-08-25T21:57:45.890Z,2.80
2018-08-25T22:00:14.365Z,3.00
2018-08-25T22:02:42.504Z,3.13
2018-08-25T22:05:14.961Z,2.77
2018-08-25T22:07:43.117Z,3.17
2018-08-25T22:10:11.253Z,2.83
2018-08-25T22:12:39.403Z,2.60
2018-08-25T22:15:07.594Z,2.93
2018-08-25T22:17:35.749Z,2.40
2018-08-25T22:20:03.903Z,2.50
2018-08-25T22:22:32.054Z,2.13
2018-08-25T22:25:00.234Z,2.10
2018-08-25T22:27:28.407Z,1.93
2018-08-25T22:29:57.069Z,2.43
2018-08-25T22:32:25.237Z,1.70
2018-08-25T22:34:53.433Z,1.97
2018-08-25T22:37:21.667Z,1.47
2018-08-25T22:39:52.380Z,1.20
2018-08-25T22:42:20.489Z,1.70
2018-08-25T22:44:48.644Z,1.50
2018-08-25T22:47:16.832Z,1.53
2018-08-25T22:49:44.992Z,1.63
2018-08-25T22:52:13.170Z,1.27
2018-08-25T22:54:41.355Z,1.42
2018-08-25T22:57:10.295Z,1.33
2018-08-25T22:59:38.444Z,1.13
2018-08-25T23:02:06.628Z,1.67
2018-08-25T23:04:34.769Z,1.40
2018-08-25T23:07:03.143Z,1.27
2018-08-25T23:09:31.297Z,1.47
2018-08-25T23:11:59.461Z,1.50
2018-08-25T23:14:27.632Z,1.40
2018-08-25T23:16:55.774Z,1.60
2018-08-25T23:19:24.932Z,1.80
2018-08-25T23:21:53.059Z,1.53
2018-08-25T23:24:23.569Z,1.50
2018-08-25T23:26:54.019Z,1.87
2018-08-25T23:29:22.175Z,1.37
2018-08-25T23:31:50.576Z,1.40
2018-08-25T23:34:19.007Z,1.43
2018-08-25T23:36:47.350Z,1.40
2018-08-25T23:39:15.506Z,1.57
2018-08-25T23:41:43.879Z,1.67
2018-08-25T23:44:11.998Z,1.77
2018-08-25T23:46:40.176Z,1.73
2018-08-25T23:49:08.752Z,1.40
2018-08-25T23:51:36.874Z,2.07
2018-08-25T23:54:06.731Z,1.83
2018-08-25T23:56:34.892Z,1.60
2018-08-25T23:59:03.039Z,1.70
